Time;durP1;ratioP1;P1;durP2;ratioP2;P2;SDS_P1;SDS_P2;PMS_P1;PMS_P2;Temp;Humidity;BMP_temperature;BMP_pressure;BME280_temperature;BME280_humidity;BME280_pressure;Samples;Min_cycle;Max_cycle;Signal;HPM_P1;HPM_P2
2021/08/16 00:00:59;;;;;;;8.27;3.40;;;;;;;16.27;100.00;99668.09;4956180;29;20031;-81
2021/08/16 00:03:25;;;;;;;7.43;3.08;;;;;;;16.21;100.00;99644.91;4956961;28;20034;-82
2021/08/16 00:05:50;;;;;;;7.85;3.10;;;;;;;16.19;100.00;99644.13;4955929;29;20045;-82
2021/08/16 00:08:15;;;;;;;7.68;2.95;;;;;;;16.11;100.00;99671.56;4955889;29;20476;-81
2021/08/16 00:10:41;;;;;;;7.93;3.30;;;;;;;16.08;100.00;99655.19;4957135;28;20034;-82
2021/08/16 00:13:06;;;;;;;10.05;3.80;;;;;;;15.94;100.00;99645.50;4955772;28;20395;-81
2021/08/16 00:15:32;;;;;;;7.93;3.13;;;;;;;15.81;100.00;99642.69;4956015;29;20555;-81
2021/08/16 00:17:59;;;;;;;7.32;3.13;;;;;;;15.78;100.00;99636.81;4955591;29;20027;-81
2021/08/16 00:20:25;;;;;;;7.85;3.42;;;;;;;15.70;100.00;99639.84;4955651;29;20019;-81
2021/08/16 00:22:51;;;;;;;6.85;3.15;;;;;;;15.66;100.00;99638.28;4955623;28;20023;-81
2021/08/16 00:25:16;;;;;;;8.57;3.65;;;;;;;15.71;100.00;99644.13;4956922;28;20023;-81
2021/08/16 00:27:41;;;;;;;7.68;3.30;;;;;;;15.81;100.00;99661.00;4955655;29;20567;-80
2021/08/16 00:30:07;;;;;;;13.45;3.30;;;;;;;15.77;100.00;99675.19;4955347;29;20043;-81
2021/08/16 00:32:32;;;;;;;8.48;3.30;;;;;;;15.77;100.00;99682.19;4955190;28;20027;-81
2021/08/16 00:34:57;;;;;;;9.25;3.70;;;;;;;15.71;100.00;99665.06;4956970;28;20039;-81
2021/08/16 00:37:23;;;;;;;8.38;3.40;;;;;;;15.72;100.00;99653.66;4955409;29;20484;-81
2021/08/16 00:39:48;;;;;;;8.25;3.22;;;;;;;15.68;100.00;99641.69;4956884;28;20027;-81
2021/08/16 00:42:13;;;;;;;10.13;3.75;;;;;;;15.52;100.00;99632.97;4955427;28;20023;-81
2021/08/16 00:44:39;;;;;;;9.63;3.40;;;;;;;15.52;100.00;99628.56;4955556;29;20034;-81
2021/08/16 00:47:05;;;;;;;8.20;3.40;;;;;;;15.57;100.00;99623.09;4956711;28;20030;-81
2021/08/16 00:49:31;;;;;;;10.43;3.80;;;;;;;15.60;100.00;99628.16;4955298;29;20110;-81
2021/08/16 00:51:56;;;;;;;7.95;3.38;;;;;;;15.62;100.00;99650.66;4956283;28;20121;-81
2021/08/16 00:54:22;;;;;;;9.27;3.78;;;;;;;15.56;100.00;99663.22;4956307;28;20393;-81
2021/08/16 00:56:47;;;;;;;12.77;3.45;;;;;;;15.41;100.00;99657.03;4954906;29;20403;-80
2021/08/16 00:59:16;;;;;;;9.77;4.05;;;;;;;15.42;100.00;99641.28;4955086;29;20019;-81
2021/08/16 01:01:41;;;;;;;8.45;3.33;;;;;;;15.45;100.00;99618.50;4954953;28;20023;-81
2021/08/16 01:04:06;;;;;;;8.23;3.38;;;;;;;15.32;100.00;99618.31;4955042;29;20030;-80
2021/08/16 01:06:32;;;;;;;8.95;3.47;;;;;;;15.29;100.00;99621.94;4956349;28;20105;-80
2021/08/16 01:08:57;;;;;;;10.10;3.20;;;;;;;15.19;100.00;99633.81;4954844;29;20086;-80
2021/08/16 01:11:23;;;;;;;8.95;3.40;;;;;;;15.03;100.00;99631.16;4955453;28;20030;-81
2021/08/16 01:13:48;;;;;;;11.25;3.60;;;;;;;15.11;100.00;99625.50;4955870;28;20067;-81
2021/08/16 01:16:15;;;;;;;10.38;4.13;;;;;;;15.02;100.00;99623.38;4956119;28;20031;-81
2021/08/16 01:18:41;;;;;;;10.13;3.83;;;;;;;14.95;100.00;99631.53;4954889;29;20046;-81
2021/08/16 01:21:09;;;;;;;10.98;3.90;;;;;;;14.93;100.00;99627.28;4955750;28;20407;-81
2021/08/16 01:23:35;;;;;;;8.93;3.65;;;;;;;14.87;100.00;99628.47;4954750;28;20154;-81
2021/08/16 01:26:01;;;;;;;7.70;3.65;;;;;;;14.87;100.00;99636.31;4954754;29;20031;-81
2021/08/16 01:28:27;;;;;;;11.68;3.47;;;;;;;14.83;100.00;99621.72;4954557;29;20023;-81
2021/08/16 01:30:59;;;;;;;11.57;4.18;;;;;;;14.91;100.00;99616.09;4955679;28;20035;-81
2021/08/16 01:33:25;;;;;;;8.07;3.50;;;;;;;14.87;100.00;99610.22;4955454;28;20027;-81
2021/08/16 01:35:51;;;;;;;10.93;3.83;;;;;;;14.81;100.00;99596.59;4954808;29;20063;-80
2021/08/16 01:38:20;;;;;;;12.13;4.03;;;;;;;14.72;100.00;99601.38;4955768;28;20121;-80
2021/08/16 01:40:47;;;;;;;12.00;3.65;;;;;;;14.73;100.00;99607.44;4954378;29;20023;-80
2021/08/16 01:43:12;;;;;;;8.38;4.07;;;;;;;14.67;100.00;99603.38;4954161;28;20600;-81
2021/08/16 01:45:38;;;;;;;11.07;3.97;;;;;;;14.69;100.00;99598.09;4954352;29;20043;-81
2021/08/16 01:48:04;;;;;;;9.75;4.25;;;;;;;14.64;100.00;99598.31;4955547;28;20023;-81
2021/08/16 01:50:29;;;;;;;15.15;4.03;;;;;;;14.67;100.00;99597.31;4954496;29;20515;-81
2021/08/16 01:52:55;;;;;;;10.55;4.00;;;;;;;14.55;100.00;99590.94;4955600;28;20039;-81
2021/08/16 01:55:20;;;;;;;8.18;3.63;;;;;;;14.47;100.00;99588.69;4954297;29;20115;-81
2021/08/16 01:57:45;;;;;;;10.45;4.05;;;;;;;14.42;100.00;99590.69;4955486;28;20091;-81
2021/08/16 02:00:11;;;;;;;10.23;3.78;;;;;;;14.40;100.00;99595.13;4954296;29;20044;-80
2021/08/16 02:02:36;;;;;;;11.30;4.13;;;;;;;14.37;100.00;99597.88;4955286;28;20047;-81
2021/08/16 02:05:02;;;;;;;8.38;3.78;;;;;;;14.36;100.00;99603.19;4954122;29;20078;-81
2021/08/16 02:07:27;;;;;;;8.32;3.80;;;;;;;14.32;100.00;99599.03;4955277;28;20046;-80
2021/08/16 02:09:52;;;;;;;9.18;4.00;;;;;;;14.32;100.00;99586.84;4954099;29;20543;-80
2021/08/16 02:12:17;;;;;;;8.32;3.97;;;;;;;14.25;100.00;99582.81;4954079;28;20168;-80
2021/08/16 02:14:43;;;;;;;8.35;3.50;;;;;;;14.20;100.00;99593.50;4955444;28;20037;-81
2021/08/16 02:17:08;;;;;;;10.10;4.38;;;;;;;14.18;100.00;99591.88;4953853;29;20106;-80
2021/08/16 02:19:33;;;;;;;9.77;3.72;;;;;;;14.25;100.00;99595.88;4955340;28;20020;-81
2021/08/16 02:21:59;;;;;;;12.93;4.40;;;;;;;14.20;100.00;99597.88;4954981;28;20042;-81
2021/08/16 02:24:24;;;;;;;10.27;4.28;;;;;;;14.26;100.00;99593.19;4954248;28;20396;-80
2021/08/16 02:26:49;;;;;;;10.90;4.05;;;;;;;14.30;100.00;99583.47;4958185;28;20038;-81
2021/08/16 02:29:15;;;;;;;14.43;4.03;;;;;;;14.34;100.00;99584.16;4957807;28;20471;-81
2021/08/16 02:31:40;;;;;;;10.70;4.15;;;;;;;14.38;100.00;99586.53;4957554;28;20023;-80
2021/08/16 02:34:05;;;;;;;9.45;4.38;;;;;;;14.42;100.00;99587.22;4957783;29;20030;-81
2021/08/16 02:36:31;;;;;;;9.82;4.10;;;;;;;14.45;100.00;99584.47;4959049;28;20086;-81
2021/08/16 02:38:56;;;;;;;11.75;4.97;;;;;;;14.54;100.00;99577.97;4958879;28;20023;-81
2021/08/16 02:41:22;;;;;;;11.18;4.68;;;;;;;14.54;100.00;99568.38;4958864;28;20039;-81
2021/08/16 02:43:47;;;;;;;10.98;3.95;;;;;;;14.45;100.00;99568.81;4957707;29;20023;-81
2021/08/16 02:46:13;;;;;;;10.60;4.35;;;;;;;14.47;100.00;99565.22;4958908;28;20027;-81
2021/08/16 02:48:38;;;;;;;12.73;4.22;;;;;;;14.53;100.00;99561.47;4958981;28;20027;-81
2021/08/16 02:51:03;;;;;;;11.23;4.13;;;;;;;14.43;100.00;99561.03;4957441;29;20142;-81
2021/08/16 02:53:29;;;;;;;14.15;4.72;;;;;;;14.38;100.00;99557.00;4957439;28;20030;-81
2021/08/16 02:55:54;;;;;;;17.08;4.72;;;;;;;14.31;100.00;99556.44;4957371;29;20097;-80
2021/08/16 02:58:19;;;;;;;11.93;4.93;;;;;;;14.36;100.00;99559.69;4958630;28;20031;-81
2021/08/16 03:00:45;;;;;;;12.13;5.40;;;;;;;14.30;100.00;99559.16;4958735;28;20066;-81
2021/08/16 03:03:10;;;;;;;12.10;4.55;;;;;;;14.27;100.00;99552.31;4957266;28;20110;-81
2021/08/16 03:05:35;;;;;;;12.57;5.03;;;;;;;14.24;100.00;99545.47;4957401;29;20480;-81
2021/08/16 03:08:01;;;;;;;10.65;4.80;;;;;;;14.26;100.00;99548.84;4957167;29;20071;-80
2021/08/16 03:10:26;;;;;;;13.35;5.15;;;;;;;14.23;100.00;99545.56;4958668;28;20109;-80
2021/08/16 03:12:51;;;;;;;10.15;4.50;;;;;;;14.21;100.00;99539.56;4957195;28;20082;-80
2021/08/16 03:15:17;;;;;;;10.88;4.65;;;;;;;14.12;100.00;99540.03;4957205;29;20034;-81
2021/08/16 03:17:42;;;;;;;12.73;4.97;;;;;;;14.07;100.00;99536.78;4958219;28;20070;-81
2021/08/16 03:20:08;;;;;;;11.18;5.13;;;;;;;14.09;100.00;99535.78;4957159;29;20066;-81
2021/08/16 03:22:34;;;;;;;10.90;5.25;;;;;;;14.08;100.00;99528.06;4958445;28;20023;-80
2021/08/16 03:24:59;;;;;;;13.73;5.07;;;;;;;14.05;100.00;99522.06;4958536;28;20031;-81
2021/08/16 03:27:24;;;;;;;10.48;4.85;;;;;;;14.14;100.00;99518.16;4957062;29;20031;-81
2021/08/16 03:29:50;;;;;;;12.60;5.00;;;;;;;14.21;100.00;99516.09;4958118;28;20074;-81
2021/08/16 03:32:15;;;;;;;11.57;4.93;;;;;;;14.30;100.00;99512.19;4958199;28;20059;-80
2021/08/16 03:34:40;;;;;;;9.95;4.97;;;;;;;14.33;100.00;99512.88;4957931;28;20082;-80
2021/08/16 03:37:06;;;;;;;10.95;4.68;;;;;;;14.44;100.00;99504.50;4957424;28;20035;-80
2021/08/16 03:39:31;;;;;;;9.48;4.70;;;;;;;14.56;100.00;99509.13;4956714;29;20035;-81
2021/08/16 03:41:56;;;;;;;11.25;4.95;;;;;;;14.58;100.00;99514.28;4957595;28;20023;-81
2021/08/16 03:44:21;;;;;;;11.00;4.85;;;;;;;14.62;100.00;99513.19;4956369;29;20034;-80
2021/08/16 03:46:47;;;;;;;11.35;4.75;;;;;;;14.56;100.00;99508.28;4958177;28;20024;-81
2021/08/16 03:49:12;;;;;;;11.80;4.85;;;;;;;14.59;100.00;99508.97;4957617;28;20082;-81
2021/08/16 03:51:37;;;;;;;10.75;4.25;;;;;;;14.69;100.00;99511.97;4957573;28;20420;-81
2021/08/16 03:54:03;;;;;;;13.88;4.88;;;;;;;14.78;100.00;99506.25;4956326;29;20034;-81
2021/08/16 03:56:28;;;;;;;9.98;4.55;;;;;;;14.83;100.00;99499.00;4956177;29;20035;-80
2021/08/16 03:58:54;;;;;;;10.52;5.40;;;;;;;14.90;100.00;99505.63;4956293;28;20023;-81
2021/08/16 04:01:19;;;;;;;13.75;5.28;;;;;;;15.01;100.00;99498.97;4956011;28;20023;-80
2021/08/16 04:03:44;;;;;;;11.70;5.70;;;;;;;15.03;100.00;99508.41;4957757;28;20041;-80
2021/08/16 04:06:10;;;;;;;11.90;6.25;;;;;;;15.10;100.00;99498.47;4956317;29;20054;-81
2021/08/16 04:08:39;;;;;;;11.82;5.97;;;;;;;15.13;100.00;99508.75;4956478;29;20031;-81
2021/08/16 04:11:09;;;;;;;14.13;7.00;;;;;;;15.17;100.00;99505.03;4957730;28;20030;-81
2021/08/16 04:13:35;;;;;;;13.60;6.03;;;;;;;15.16;100.00;99509.44;4957350;28;20038;-81
2021/08/16 04:16:00;;;;;;;15.82;6.65;;;;;;;15.18;100.00;99501.53;4957658;28;20035;-81
2021/08/16 04:18:26;;;;;;;13.73;6.20;;;;;;;15.19;100.00;99493.59;4956289;29;20077;-81
2021/08/16 04:20:51;;;;;;;14.70;7.35;;;;;;;15.19;100.00;99495.38;4957148;28;20031;-81
2021/08/16 04:23:16;;;;;;;12.27;6.10;;;;;;;15.20;100.00;99497.88;4956058;28;20503;-81
2021/08/16 04:25:42;;;;;;;13.68;6.47;;;;;;;15.21;100.00;99501.34;4956381;29;20107;-81
2021/08/16 04:28:08;;;;;;;17.42;7.70;;;;;;;15.20;100.00;99490.03;4956178;29;20396;-81
2021/08/16 04:30:33;;;;;;;16.77;6.88;;;;;;;15.19;100.00;99493.59;4955600;29;20096;-81
2021/08/16 04:32:58;;;;;;;15.20;7.90;;;;;;;15.22;100.00;99495.19;4957086;28;20031;-81
2021/08/16 04:35:23;;;;;;;12.93;6.15;;;;;;;15.19;100.00;99490.97;4955677;29;20034;-81
2021/08/16 04:37:48;;;;;;;14.77;6.93;;;;;;;15.18;100.00;99491.91;4956998;28;20439;-81
2021/08/16 04:40:14;;;;;;;17.52;6.90;;;;;;;15.20;100.00;99491.81;4956138;29;20022;-81
2021/08/16 04:42:40;;;;;;;19.23;7.53;;;;;;;15.25;100.00;99491.59;4956646;28;20070;-81
2021/08/16 04:45:08;;;;;;;13.63;6.20;;;;;;;15.24;100.00;99492.50;4956373;29;20023;-82
2021/08/16 04:47:33;;;;;;;15.00;7.05;;;;;;;15.21;100.00;99490.91;4957137;28;20575;-81
2021/08/16 04:49:58;;;;;;;13.05;6.72;;;;;;;15.23;100.00;99483.81;4955282;29;20059;-81
2021/08/16 04:52:24;;;;;;;18.25;7.13;;;;;;;15.27;100.00;99487.97;4980223;23;20039;-77
2021/08/16 04:54:50;;;;;;;18.02;7.57;;;;;;;15.26;100.00;99478.41;4954659;29;20105;-76
2021/08/16 04:57:27;;;;;;;15.45;7.22;;;;;;;15.26;100.00;99477.59;4955862;28;20115;-77
2021/08/16 04:59:52;;;;;;;20.23;7.65;;;;;;;15.27;100.00;99477.50;4954832;29;20026;-77
2021/08/16 05:02:18;;;;;;;19.92;7.40;;;;;;;15.32;100.00;99472.03;4955712;28;20109;-77
2021/08/16 05:04:43;;;;;;;17.92;7.35;;;;;;;15.33;100.00;99473.69;4956281;28;20031;-77
2021/08/16 05:07:08;;;;;;;15.27;7.93;;;;;;;15.38;100.00;99469.91;4955725;28;20038;-78
2021/08/16 05:09:33;;;;;;;15.98;9.23;;;;;;;15.38;100.00;99469.91;4955571;28;20408;-77
2021/08/16 05:11:59;;;;;;;17.50;7.82;;;;;;;15.42;100.00;99468.81;4955576;28;20026;-77
2021/08/16 05:14:24;;;;;;;17.17;8.73;;;;;;;15.43;100.00;99473.13;4954267;29;20027;-76
2021/08/16 05:16:49;;;;;;;18.42;8.75;;;;;;;15.47;100.00;99470.34;4955969;28;20062;-77
2021/08/16 05:19:15;;;;;;;16.35;7.82;;;;;;;15.51;100.00;99471.84;4955552;28;20459;-77
2021/08/16 05:21:40;;;;;;;18.90;8.23;;;;;;;15.48;100.00;99462.38;4954094;28;20451;-76
2021/08/16 05:24:05;;;;;;;15.00;8.77;;;;;;;15.42;100.00;99468.81;4955962;28;20035;-76
2021/08/16 05:26:31;;;;;;;17.95;9.35;;;;;;;15.46;100.00;99468.66;4955364;28;20468;-76
2021/08/16 05:28:59;;;;;;;19.55;8.90;;;;;;;15.40;100.00;99467.22;4955394;28;20031;-77
2021/08/16 05:31:24;;;;;;;21.13;9.38;;;;;;;15.42;100.00;99463.59;4955255;28;20027;-77
2021/08/16 05:33:49;;;;;;;18.40;8.55;;;;;;;15.38;100.00;99466.44;4954041;28;20034;-77
2021/08/16 05:36:14;;;;;;;15.55;8.68;;;;;;;15.36;100.00;99468.31;4955381;28;20131;-77
2021/08/16 05:38:40;;;;;;;17.90;8.27;;;;;;;15.37;100.00;99465.63;4953907;29;20034;-76
2021/08/16 05:41:05;;;;;;;17.33;8.45;;;;;;;15.42;100.00;99468.81;4953934;29;20024;-77
2021/08/16 05:43:30;;;;;;;18.48;8.10;;;;;;;15.47;100.00;99476.41;4953849;28;20038;-77
2021/08/16 05:45:55;;;;;;;15.85;8.20;;;;;;;15.43;100.00;99478.34;4955125;28;20035;-77
2021/08/16 05:48:21;;;;;;;23.30;8.27;;;;;;;15.53;100.00;99476.06;4955179;28;20502;-77
2021/08/16 05:50:46;;;;;;;18.13;8.30;;;;;;;15.64;100.00;99473.69;4953907;29;20035;-77
2021/08/16 05:53:12;;;;;;;18.38;7.63;;;;;;;15.60;100.00;99468.72;4954874;28;20027;-77
2021/08/16 05:55:37;;;;;;;14.82;7.68;;;;;;;15.61;100.00;99463.41;4953850;29;20484;-77
2021/08/16 05:58:03;;;;;;;13.25;7.55;;;;;;;15.71;100.00;99471.59;4953767;29;20058;-77
2021/08/16 06:00:28;;;;;;;17.67;7.57;;;;;;;15.85;100.00;99471.63;4954960;28;20440;-77
2021/08/16 06:02:53;;;;;;;17.15;7.25;;;;;;;15.76;100.00;99466.94;4953624;28;20117;-77
2021/08/16 06:05:18;;;;;;;19.88;7.22;;;;;;;15.80;100.00;99472.84;4955509;28;20019;-77
2021/08/16 06:07:44;;;;;;;20.10;7.85;;;;;;;15.68;100.00;99474.38;4954904;28;20027;-77
2021/08/16 06:10:10;;;;;;;19.73;7.45;;;;;;;15.79;100.00;99473.75;4954754;28;20034;-77
2021/08/16 06:12:35;;;;;;;14.23;7.70;;;;;;;15.70;100.00;99472.53;4954769;28;20027;-77
2021/08/16 06:15:00;;;;;;;19.70;7.70;;;;;;;15.73;100.00;99472.34;4954997;29;20034;-77
2021/08/16 06:17:26;;;;;;;16.30;8.05;;;;;;;15.75;100.00;99464.41;4953576;28;20070;-76
2021/08/16 06:19:51;;;;;;;15.93;7.85;;;;;;;15.79;100.00;99460.69;4955125;28;20051;-77
2021/08/16 06:22:16;;;;;;;20.48;7.82;;;;;;;15.90;100.00;99463.53;4954632;28;20109;-76
2021/08/16 06:24:41;;;;;;;17.00;8.85;;;;;;;15.98;100.00;99470.94;4954846;28;20023;-77
2021/08/16 06:27:07;;;;;;;19.20;7.65;;;;;;;16.01;100.00;99462.91;4953806;29;20023;-77
2021/08/16 06:29:32;;;;;;;18.77;7.72;;;;;;;16.10;100.00;99467.59;4954812;28;20085;-76
2021/08/16 06:31:58;;;;;;;21.75;8.13;;;;;;;16.15;100.00;99464.72;4953418;28;20023;-77
2021/08/16 06:34:24;;;;;;;16.27;7.55;;;;;;;16.23;100.00;99467.75;4954653;28;20030;-77
2021/08/16 06:36:56;;;;;;;22.75;7.70;;;;;;;16.20;100.00;99460.91;4954702;28;20023;-77
2021/08/16 06:39:23;;;;;;;22.83;7.68;;;;;;;16.17;100.00;99458.47;4954750;28;20078;-77
2021/08/16 06:41:51;;;;;;;18.23;6.90;;;;;;;16.23;100.00;99459.91;4954892;28;20480;-76
2021/08/16 06:44:18;;;;;;;16.35;6.40;;;;;;;16.31;100.00;99461.09;4953421;29;20053;-77
2021/08/16 06:46:44;;;;;;;15.10;6.78;;;;;;;16.13;100.00;99462.19;4954608;28;20369;-77
2021/08/16 06:49:10;;;;;;;19.52;7.22;;;;;;;16.09;100.00;99471.16;4953231;29;20027;-77
2021/08/16 06:51:35;;;;;;;19.33;7.30;;;;;;;16.19;100.00;99472.28;4954715;28;20449;-77
2021/08/16 06:54:00;;;;;;;14.43;6.65;;;;;;;16.17;100.00;99468.09;4953467;29;20034;-77
2021/08/16 06:56:25;;;;;;;15.77;7.00;;;;;;;16.10;100.00;99476.31;4954561;28;20644;-77
2021/08/16 06:58:51;;;;;;;24.13;7.35;;;;;;;16.10;100.00;99472.81;4953256;29;20027;-77
2021/08/16 07:01:20;;;;;;;17.55;6.93;;;;;;;16.18;100.00;99477.63;4953302;29;20480;-77
2021/08/16 07:03:45;;;;;;;18.45;5.90;;;;;;;16.15;100.00;99467.34;4953223;28;20038;-78
2021/08/16 07:06:10;;;;;;;19.02;6.78;;;;;;;16.17;100.00;99468.94;4954575;28;20035;-77
2021/08/16 07:08:35;;;;;;;17.73;7.15;;;;;;;16.16;100.00;99469.84;4953942;29;20023;-77
2021/08/16 07:11:01;;;;;;;20.73;7.60;;;;;;;16.22;100.00;99469.50;4955603;28;20032;-78
2021/08/16 07:13:26;;;;;;;19.73;7.10;;;;;;;16.16;100.00;99476.88;4958726;28;20027;-77
2021/08/16 07:15:51;;;;;;;14.70;6.28;;;;;;;16.16;100.00;99485.53;4957244;29;20023;-78
2021/08/16 07:18:16;;;;;;;18.05;7.47;;;;;;;16.26;100.00;99484.09;4956791;29;20200;-78
2021/08/16 07:20:44;;;;;;;22.52;7.68;;;;;;;16.25;100.00;99478.94;4956836;29;20031;-76
2021/08/16 07:23:09;;;;;;;18.95;6.80;;;;;;;16.28;100.00;99474.38;4958046;28;20117;-77
2021/08/16 07:25:34;;;;;;;15.02;7.03;;;;;;;16.33;100.00;99472.31;4957390;29;20487;-76
2021/08/16 07:28:00;;;;;;;19.42;6.88;;;;;;;16.38;100.00;99473.81;4956530;29;20050;-78
2021/08/16 07:30:26;;;;;;;19.75;6.63;;;;;;;16.47;100.00;99473.28;4956188;29;20051;-77
2021/08/16 07:32:51;;;;;;;22.10;6.63;;;;;;;16.42;100.00;99472.72;4957487;28;20063;-77
2021/08/16 07:35:16;;;;;;;16.88;6.75;;;;;;;16.53;100.00;99475.50;4956784;29;20023;-78
2021/08/16 07:37:42;;;;;;;18.88;6.90;;;;;;;16.69;100.00;99476.28;4957722;28;20030;-76
2021/08/16 07:40:08;;;;;;;19.90;7.07;;;;;;;16.71;100.00;99469.16;4956149;29;20374;-78
2021/08/16 07:42:33;;;;;;;18.20;6.45;;;;;;;16.76;100.00;99469.78;4956145;28;20035;-77
2021/08/16 07:44:58;;;;;;;18.65;6.60;;;;;;;16.77;100.00;99471.44;4957416;28;20061;-77
2021/08/16 07:47:23;;;;;;;18.05;6.60;;;;;;;16.77;100.00;99466.19;4957310;28;20038;-78
2021/08/16 07:49:49;;;;;;;20.73;6.82;;;;;;;16.92;100.00;99474.91;4957201;28;20035;-77
2021/08/16 07:52:14;;;;;;;18.50;6.55;;;;;;;17.03;100.00;99471.63;4955629;28;20039;-76
2021/08/16 07:54:39;;;;;;;16.02;6.57;;;;;;;17.34;100.00;99459.22;4955939;29;20039;-76
2021/08/16 07:57:04;;;;;;;16.48;6.25;;;;;;;17.37;100.00;99453.78;4955752;29;20107;-76
2021/08/16 07:59:30;;;;;;;15.20;5.65;;;;;;;17.56;100.00;99446.41;4955746;29;20039;-77
2021/08/16 08:01:56;;;;;;;14.30;6.30;;;;;;;17.56;100.00;99446.41;4955631;28;20023;-77
2021/08/16 08:04:21;;;;;;;14.50;5.03;;;;;;;17.53;100.00;99454.47;4956812;28;20027;-77
2021/08/16 08:06:46;;;;;;;14.05;5.18;;;;;;;17.47;100.00;99460.09;4957297;28;20043;-77
2021/08/16 08:09:11;;;;;;;15.13;5.18;;;;;;;17.22;100.00;99451.19;4957309;28;20138;-77
2021/08/16 08:11:37;;;;;;;15.68;5.38;;;;;;;17.43;100.00;99453.38;4956705;28;20051;-77
2021/08/16 08:14:02;;;;;;;11.93;4.80;;;;;;;17.62;100.00;99451.25;4956972;28;20074;-77
2021/08/16 08:16:28;;;;;;;15.85;4.70;;;;;;;18.03;100.00;99463.44;4956737;28;20077;-77
2021/08/16 08:18:53;;;;;;;12.07;5.00;;;;;;;19.24;100.00;99456.88;4955408;29;20448;-77
2021/08/16 08:21:18;;;;;;;12.18;4.78;;;;;;;19.12;100.00;99460.38;4956606;28;20439;-77
2021/08/16 08:23:43;;;;;;;18.98;4.65;;;;;;;17.90;100.00;99458.16;4956457;28;20027;-78
2021/08/16 08:26:09;;;;;;;12.68;4.30;;;;;;;18.12;100.00;99454.13;4955272;29;20031;-77
2021/08/16 08:28:34;;;;;;;14.32;4.68;;;;;;;18.28;100.00;99461.78;4956663;28;20476;-77
2021/08/16 08:30:59;;;;;;;15.10;5.25;;;;;;;20.03;100.00;99460.75;4955193;29;20027;-77
2021/08/16 08:33:25;;;;;;;13.13;4.93;;;;;;;20.45;100.00;99461.91;4956327;28;20499;-77
2021/08/16 08:35:51;;;;;;;14.20;5.65;;;;;;;19.36;100.00;99447.28;4956373;28;20086;-77
2021/08/16 08:38:17;;;;;;;17.95;4.68;;;;;;;18.48;100.00;99455.22;4956408;28;20455;-77
2021/08/16 08:40:43;;;;;;;15.05;4.65;;;;;;;18.39;100.00;99461.91;4956265;28;20098;-77
2021/08/16 08:43:11;;;;;;;18.38;4.30;;;;;;;18.55;100.00;99465.16;4956234;28;20102;-77
2021/08/16 08:45:37;;;;;;;11.82;4.13;;;;;;;18.70;100.00;99457.19;4954918;29;20031;-77
2021/08/16 08:48:03;;;;;;;13.50;4.15;;;;;;;18.58;100.00;99462.34;4954892;29;20382;-77
2021/08/16 08:50:28;;;;;;;12.80;4.10;;;;;;;18.82;100.00;99453.72;4954677;29;20023;-77
2021/08/16 08:52:58;;;;;;;15.32;4.30;;;;;;;19.17;100.00;99459.09;4955848;28;20114;-77
2021/08/16 08:55:23;;;;;;;12.32;4.05;;;;;;;18.99;100.00;99461.25;4954719;29;20034;-77
2021/08/16 08:57:48;;;;;;;10.40;3.50;;;;;;;19.07;100.00;99456.31;4956038;28;20027;-77
2021/08/16 09:00:18;;;;;;;14.32;4.22;;;;;;;18.69;100.00;99466.00;4955940;28;20111;-77
2021/08/16 09:02:58;;;;;;;15.52;4.47;;;;;;;18.09;100.00;99463.03;4954612;28;20059;-77
2021/08/16 09:05:24;;;;;;;12.88;3.38;;;;;;;17.90;100.00;99462.59;4955782;28;20189;-77
2021/08/16 09:07:49;;;;;;;19.77;4.78;;;;;;;17.58;100.00;99462.88;4954622;29;20088;-77
2021/08/16 09:10:16;;;;;;;13.90;4.35;;;;;;;17.41;100.00;99468.38;4954252;29;20019;-77
2021/08/16 09:12:42;;;;;;;12.77;4.18;;;;;;;17.19;100.00;99467.09;4955576;28;20448;-77
2021/08/16 09:15:31;;;;;;;11.68;4.40;;;;;;;17.01;100.00;99470.88;4955658;28;20484;-76
2021/08/16 09:18:02;;;;;;;12.80;4.18;;;;;;;16.86;100.00;99480.53;4955534;28;20106;-77
2021/08/16 09:20:33;;;;;;;14.70;4.45;;;;;;;16.97;100.00;99477.25;4955589;28;20028;-77
2021/08/16 09:23:01;;;;;;;13.77;4.18;;;;;;;16.93;100.00;99476.59;4954005;28;20484;-77
2021/08/16 09:25:30;;;;;;;13.93;4.63;;;;;;;16.78;100.00;99473.16;4955449;28;20081;-77
2021/08/16 09:27:56;;;;;;;16.35;4.90;;;;;;;16.70;100.00;99474.50;4954250;29;20373;-77
2021/08/16 09:30:34;;;;;;;13.35;4.95;;;;;;;16.77;100.00;99479.31;4953926;29;20031;-77
2021/08/16 09:33:18;;;;;;;13.70;4.50;;;;;;;16.88;100.00;99469.97;4954088;28;20027;-77
2021/08/16 09:35:58;;;;;;;10.30;3.75;;;;;;;16.78;100.00;99472.31;4954768;28;20073;-77
2021/08/16 09:38:40;;;;;;;12.73;4.68;;;;;;;16.82;100.00;99478.19;4955503;28;20035;-77
2021/08/16 09:41:27;;;;;;;14.95;5.30;;;;;;;16.86;100.00;99477.06;4953852;29;20019;-77
2021/08/16 09:44:04;;;;;;;13.73;4.63;;;;;;;16.52;100.00;99477.31;4955010;28;20083;-77
2021/08/16 09:46:30;;;;;;;12.27;4.97;;;;;;;16.36;100.00;99470.47;4954009;29;20089;-77
2021/08/16 09:48:56;;;;;;;15.35;5.28;;;;;;;16.29;100.00;99478.69;4954182;29;20535;-77
2021/08/16 09:51:22;;;;;;;15.73;5.03;;;;;;;16.12;100.00;99481.44;4954287;28;20033;-77
2021/08/16 09:53:48;;;;;;;17.92;6.35;;;;;;;15.84;100.00;99485.66;4955004;28;20027;-78
2021/08/16 09:56:16;;;;;;;19.20;5.68;;;;;;;15.71;100.00;99499.50;4953852;29;20082;-77
2021/08/16 09:58:42;;;;;;;11.95;4.85;;;;;;;15.40;100.00;99488.97;4955289;28;20019;-77
2021/08/16 10:01:07;;;;;;;16.67;4.60;;;;;;;15.18;100.00;99485.84;4954874;28;20027;-77
2021/08/16 10:03:32;;;;;;;17.15;4.97;;;;;;;15.15;100.00;99501.69;4954948;28;20023;-77
2021/08/16 10:05:58;;;;;;;9.32;4.50;;;;;;;15.06;100.00;99484.75;4954744;28;20033;-77
2021/08/16 10:08:26;;;;;;;6.53;2.63;;;;;;;14.98;100.00;99478.25;4955287;28;20031;-78
2021/08/16 10:10:53;;;;;;;11.68;3.85;;;;;;;15.17;100.00;99498.03;4954829;28;20031;-78
2021/08/16 10:13:22;;;;;;;12.48;3.78;;;;;;;15.17;100.00;99500.66;4953557;28;20029;-77
2021/08/16 10:15:51;;;;;;;8.80;2.67;;;;;;;15.10;100.00;99503.69;4953948;28;20396;-78
2021/08/16 10:18:19;;;;;;;5.63;1.92;;;;;;;14.89;100.00;99500.47;4954952;28;20029;-78
2021/08/16 10:20:46;;;;;;;7.18;2.08;;;;;;;14.95;100.00;99495.75;4954980;28;20479;-77
2021/08/16 10:23:16;;;;;;;6.05;1.55;;;;;;;14.78;100.00;99498.44;4953586;28;20125;-77
2021/08/16 10:25:50;;;;;;;8.07;2.00;;;;;;;14.77;100.00;99498.50;4954836;28;20023;-77
2021/08/16 10:28:52;;;;;;;5.17;1.47;;;;;;;14.69;100.00;99498.91;4954931;28;20572;-77
2021/08/16 10:31:24;;;;;;;6.30;1.50;;;;;;;14.56;100.00;99503.06;4954896;28;20035;-78
2021/08/16 10:33:49;;;;;;;4.43;1.45;;;;;;;14.56;100.00;99495.22;4954782;28;20117;-76
2021/08/16 10:36:19;;;;;;;4.65;1.45;;;;;;;14.49;100.00;99508.56;4954829;28;20062;-76
2021/08/16 10:38:50;;;;;;;5.28;1.33;;;;;;;14.43;100.00;99508.88;4953559;29;20019;-77
2021/08/16 10:41:39;;;;;;;6.68;1.80;;;;;;;14.49;100.00;99508.56;4955028;28;20073;-77
2021/08/16 10:44:17;;;;;;;5.50;1.60;;;;;;;14.53;100.00;99504.06;4953552;29;20023;-76
2021/08/16 10:46:46;;;;;;;4.75;1.60;;;;;;;14.54;100.00;99502.31;4955675;28;20495;-76
2021/08/16 10:49:15;;;;;;;7.35;1.52;;;;;;;14.46;100.00;99498.28;4958344;28;20114;-77
2021/08/16 10:51:45;;;;;;;4.30;1.45;;;;;;;14.49;100.00;99507.72;4958255;28;20027;-77
2021/08/16 10:54:24;;;;;;;8.23;2.00;;;;;;;14.52;100.00;99501.53;5014500;23;20496;-86
2021/08/16 10:56:52;;;;;;;8.18;1.92;;;;;;;14.79;100.00;99507.94;4957349;29;20395;-86
2021/08/16 10:59:19;;;;;;;5.53;1.83;;;;;;;14.97;100.00;99508.75;4957242;29;20098;-86
2021/08/16 11:01:46;;;;;;;6.50;2.00;;;;;;;15.01;100.00;99502.41;4957093;29;20020;-85
2021/08/16 11:04:15;;;;;;;6.10;2.38;;;;;;;15.05;100.00;99505.69;4957112;28;20122;-85
2021/08/16 11:07:02;;;;;;;5.20;2.00;;;;;;;15.19;100.00;99493.59;4956852;29;20395;-85
2021/08/16 11:09:29;;;;;;;5.68;2.45;;;;;;;15.23;100.00;99493.44;4956781;29;20027;-85
2021/08/16 11:12:09;;;;;;;7.30;2.42;;;;;;;15.20;100.00;99508.31;4957185;29;20031;-85
2021/08/16 11:14:39;;;;;;;5.85;2.28;;;;;;;15.20;100.00;99491.81;4958568;28;20023;-85
2021/08/16 11:17:05;;;;;;;8.38;2.45;;;;;;;15.25;100.00;99504.63;4956920;29;20488;-85